sensor_id;sensor_type;location;lat;lon;timestamp;pressure;altitude;pressure_sealevel;temperature;humidity
64835;BME280;51293;59.296;18.006;2023-02-12T00:01:22;102326.31;;;-5.20;100.00
64835;BME280;51293;59.296;18.006;2023-02-12T00:03:47;102327.84;;;-5.16;100.00
64835;BME280;51293;59.296;18.006;2023-02-12T00:06:13;102329.72;;;-5.18;100.00
64835;BME280;51293;59.296;18.006;2023-02-12T00:08:39;102327.19;;;-5.19;100.00
64835;BME280;51293;59.296;18.006;2023-02-12T00:11:12;102326.31;;;-5.20;100.00
64835;BME280;51293;59.296;18.006;2023-02-12T00:13:38;102322.00;;;-5.21;100.00
64835;BME280;51293;59.296;18.006;2023-02-12T00:16:08;102318.31;;;-5.18;100.00
64835;BME280;51293;59.296;18.006;2023-02-12T00:18:34;102315.66;;;-5.18;100.00
64835;BME280;51293;59.296;18.006;2023-02-12T00:20:59;102319.25;;;-5.19;100.00
64835;BME280;51293;59.296;18.006;2023-02-12T00:23:25;102325.78;;;-5.11;100.00
64835;BME280;51293;59.296;18.006;2023-02-12T00:25:50;102312.81;;;-5.15;100.00
64835;BME280;51293;59.296;18.006;2023-02-12T00:28:16;102310.63;;;-5.23;100.00
64835;BME280;51293;59.296;18.006;2023-02-12T00:30:41;102300.50;;;-5.30;100.00
64835;BME280;51293;59.296;18.006;2023-02-12T00:33:07;102293.53;;;-5.31;100.00
64835;BME280;51293;59.296;18.006;2023-02-12T00:35:32;102294.56;;;-5.34;100.00
64835;BME280;51293;59.296;18.006;2023-02-12T00:37:57;102289.47;;;-5.37;100.00
64835;BME280;51293;59.296;18.006;2023-02-12T00:40:23;102296.63;;;-5.39;100.00
64835;BME280;51293;59.296;18.006;2023-02-12T00:42:48;102289.94;;;-5.45;100.00
64835;BME280;51293;59.296;18.006;2023-02-12T00:45:13;102293.56;;;-5.47;100.00
64835;BME280;51293;59.296;18.006;2023-02-12T00:47:39;102295.22;;;-5.45;100.00
64835;BME280;51293;59.296;18.006;2023-02-12T00:50:05;102294.16;;;-5.42;100.00
64835;BME280;51293;59.296;18.006;2023-02-12T00:52:30;102288.13;;;-5.44;100.00
64835;BME280;51293;59.296;18.006;2023-02-12T00:54:56;102288.28;;;-5.47;100.00
64835;BME280;51293;59.296;18.006;2023-02-12T00:57:21;102283.94;;;-5.48;100.00
64835;BME280;51293;59.296;18.006;2023-02-12T00:59:46;102295.28;;;-5.46;100.00
64835;BME280;51293;59.296;18.006;2023-02-12T01:02:12;102295.28;;;-5.46;100.00
64835;BME280;51293;59.296;18.006;2023-02-12T01:04:37;102295.22;;;-5.45;100.00
64835;BME280;51293;59.296;18.006;2023-02-12T01:07:03;102295.28;;;-5.46;100.00
64835;BME280;51293;59.296;18.006;2023-02-12T01:09:28;102295.13;;;-5.43;100.00
64835;BME280;51293;59.296;18.006;2023-02-12T01:11:54;102299.53;;;-5.44;100.00
64835;BME280;51293;59.296;18.006;2023-02-12T01:14:20;102303.03;;;-5.43;100.00
64835;BME280;51293;59.296;18.006;2023-02-12T01:16:46;102304.81;;;-5.44;100.00
64835;BME280;51293;59.296;18.006;2023-02-12T01:19:11;102304.47;;;-5.38;100.00
64835;BME280;51293;59.296;18.006;2023-02-12T01:21:37;102305.50;;;-5.40;100.00
64835;BME280;51293;59.296;18.006;2023-02-12T01:24:03;102293.22;;;-5.41;100.00
64835;BME280;51293;59.296;18.006;2023-02-12T01:26:30;102299.25;;;-5.39;100.00
64835;BME280;51293;59.296;18.006;2023-02-12T01:29:00;102303.34;;;-5.33;100.00
64835;BME280;51293;59.296;18.006;2023-02-12T01:31:28;102305.78;;;-5.30;100.00
64835;BME280;51293;59.296;18.006;2023-02-12T01:33:56;102305.75;;;-5.29;100.00
64835;BME280;51293;59.296;18.006;2023-02-12T01:36:23;102308.41;;;-5.15;100.00
64835;BME280;51293;59.296;18.006;2023-02-12T01:38:49;102298.97;;;-5.19;100.00
64835;BME280;51293;59.296;18.006;2023-02-12T01:41:18;102301.66;;;-5.04;100.00
64835;BME280;51293;59.296;18.006;2023-02-12T01:43:44;102298.13;;;-5.05;100.00
64835;BME280;51293;59.296;18.006;2023-02-12T01:46:13;102302.31;;;-5.01;99.95
64835;BME280;51293;59.296;18.006;2023-02-12T01:48:42;102299.75;;;-5.02;99.73
64835;BME280;51293;59.296;18.006;2023-02-12T01:51:11;102307.63;;;-4.87;99.33
64835;BME280;51293;59.296;18.006;2023-02-12T01:53:42;102312.97;;;-4.88;99.19
64835;BME280;51293;59.296;18.006;2023-02-12T01:56:10;102308.47;;;-4.86;99.09
64835;BME280;51293;59.296;18.006;2023-02-12T01:58:38;102314.41;;;-4.83;98.73
64835;BME280;51293;59.296;18.006;2023-02-12T02:01:07;102309.22;;;-4.84;98.85
64835;BME280;51293;59.296;18.006;2023-02-12T02:03:35;102311.00;;;-4.85;98.84
64835;BME280;51293;59.296;18.006;2023-02-12T02:06:06;102302.34;;;-4.87;99.01
64835;BME280;51293;59.296;18.006;2023-02-12T02:08:34;102294.31;;;-4.85;99.09
64835;BME280;51293;59.296;18.006;2023-02-12T02:11:00;102288.56;;;-4.77;98.37
64835;BME280;51293;59.296;18.006;2023-02-12T02:13:26;102276.28;;;-4.78;98.60
64835;BME280;51293;59.296;18.006;2023-02-12T02:16:12;102276.72;;;-4.72;98.48
64835;BME280;51293;59.296;18.006;2023-02-12T02:18:49;102271.84;;;-4.78;98.57
64835;BME280;51293;59.296;18.006;2023-02-12T02:21:30;102273.63;;;-4.78;98.42
64835;BME280;51293;59.296;18.006;2023-02-12T02:24:25;102272.78;;;-4.79;98.51
64835;BME280;51293;59.296;18.006;2023-02-12T02:32:42;102266.53;;;-4.49;97.04
64835;BME280;51293;59.296;18.006;2023-02-12T02:35:14;102260.03;;;-4.44;96.27
64835;BME280;51293;59.296;18.006;2023-02-12T02:37:49;102259.16;;;-4.30;95.60
64835;BME280;51293;59.296;18.006;2023-02-12T02:40:34;102253.88;;;-4.30;95.21
64835;BME280;51293;59.296;18.006;2023-02-12T02:43:09;102240.31;;;-4.11;94.72
64835;BME280;51293;59.296;18.006;2023-02-12T02:45:42;102243.50;;;-4.06;94.29
64835;BME280;51293;59.296;18.006;2023-02-12T02:48:34;102252.56;;;-3.96;93.50
64835;BME280;51293;59.296;18.006;2023-02-12T02:51:13;102247.91;;;-3.92;93.44
64835;BME280;51293;59.296;18.006;2023-02-12T02:53:45;102252.31;;;-3.79;92.96
64835;BME280;51293;59.296;18.006;2023-02-12T02:56:19;102238.06;;;-3.90;93.19
64835;BME280;51293;59.296;18.006;2023-02-12T02:59:05;102249.16;;;-3.71;92.93
64835;BME280;51293;59.296;18.006;2023-02-12T03:01:37;102256.50;;;-3.62;92.33
64835;BME280;51293;59.296;18.006;2023-02-12T03:04:09;102257.34;;;-3.61;92.34
64835;BME280;51293;59.296;18.006;2023-02-12T03:06:42;102257.34;;;-3.49;91.82
64835;BME280;51293;59.296;18.006;2023-02-12T03:12:43;102245.00;;;-3.35;91.29
64835;BME280;51293;59.296;18.006;2023-02-12T03:17:50;102235.34;;;-3.36;91.21
64835;BME280;51293;59.296;18.006;2023-02-12T03:20:22;102239.69;;;-3.35;91.38
64835;BME280;51293;59.296;18.006;2023-02-12T03:22:59;102239.91;;;-3.26;91.27
64835;BME280;51293;59.296;18.006;2023-02-12T03:25:54;102226.44;;;-3.23;91.40
64835;BME280;51293;59.296;18.006;2023-02-12T03:28:26;102224.22;;;-3.16;90.97
64835;BME280;51293;59.296;18.006;2023-02-12T03:36:58;102221.50;;;-3.02;90.39
64835;BME280;51293;59.296;18.006;2023-02-12T03:39:10;102210.47;;;-2.96;89.90
64835;BME280;51293;59.296;18.006;2023-02-12T03:41:42;102216.72;;;-2.97;89.94
64835;BME280;51293;59.296;18.006;2023-02-12T03:44:22;102213.31;;;-2.86;89.96
64835;BME280;51293;59.296;18.006;2023-02-12T03:51:00;102208.31;;;-2.91;89.97
64835;BME280;51293;59.296;18.006;2023-02-12T03:52:59;102208.44;;;-2.92;90.11
64835;BME280;51293;59.296;18.006;2023-02-12T03:55:25;102223.00;;;-2.98;90.45
64835;BME280;51293;59.296;18.006;2023-02-12T03:57:56;102203.03;;;-2.91;90.15
64835;BME280;51293;59.296;18.006;2023-02-12T04:00:25;102202.41;;;-2.94;90.80
64835;BME280;51293;59.296;18.006;2023-02-12T04:02:51;102198.50;;;-2.89;90.42
64835;BME280;51293;59.296;18.006;2023-02-12T04:05:23;102193.72;;;-2.96;90.73
64835;BME280;51293;59.296;18.006;2023-02-12T04:07:49;102177.16;;;-2.87;91.24
64835;BME280;51293;59.296;18.006;2023-02-12T04:10:16;102178.97;;;-2.88;90.30
64835;BME280;51293;59.296;18.006;2023-02-12T04:13:23;102177.03;;;-2.86;90.61
64835;BME280;51293;59.296;18.006;2023-02-12T04:18:52;102183.94;;;-2.83;91.02
64835;BME280;51293;59.296;18.006;2023-02-12T04:24:18;102174.09;;;-2.81;90.87
64835;BME280;51293;59.296;18.006;2023-02-12T04:27:13;102177.78;;;-2.84;91.21
64835;BME280;51293;59.296;18.006;2023-02-12T04:30:02;102180.00;;;-2.77;90.65
64835;BME280;51293;59.296;18.006;2023-02-12T04:37:48;102187.34;;;-2.81;91.46
64835;BME280;51293;59.296;18.006;2023-02-12T04:40:17;102180.53;;;-2.72;91.13
64835;BME280;51293;59.296;18.006;2023-02-12T04:42:45;102185.53;;;-2.80;91.48
64835;BME280;51293;59.296;18.006;2023-02-12T04:45:13;102178.50;;;-2.82;92.13
64835;BME280;51293;59.296;18.006;2023-02-12T04:47:40;102182.88;;;-2.80;92.02
64835;BME280;51293;59.296;18.006;2023-02-12T04:50:06;102181.63;;;-2.88;92.57
64835;BME280;51293;59.296;18.006;2023-02-12T04:52:31;102181.63;;;-2.88;92.71
64835;BME280;51293;59.296;18.006;2023-02-12T04:54:57;102181.63;;;-2.88;93.12
64835;BME280;51293;59.296;18.006;2023-02-12T04:57:22;102177.47;;;-2.92;93.50
64835;BME280;51293;59.296;18.006;2023-02-12T04:59:47;102174.50;;;-2.87;93.43
64835;BME280;51293;59.296;18.006;2023-02-12T05:02:13;102164.84;;;-2.88;93.78
64835;BME280;51293;59.296;18.006;2023-02-12T05:04:38;102156.78;;;-2.87;93.89
64835;BME280;51293;59.296;18.006;2023-02-12T05:07:03;102152.09;;;-2.83;93.99
64835;BME280;51293;59.296;18.006;2023-02-12T05:09:29;102164.53;;;-2.84;94.32
64835;BME280;51293;59.296;18.006;2023-02-12T05:11:54;102156.66;;;-2.72;94.57
64835;BME280;51293;59.296;18.006;2023-02-12T05:14:23;102150.09;;;-2.79;94.36
64835;BME280;51293;59.296;18.006;2023-02-12T05:16:48;102134.19;;;-2.79;94.53
64835;BME280;51293;59.296;18.006;2023-02-12T05:19:14;102135.53;;;-2.74;94.62
64835;BME280;51293;59.296;18.006;2023-02-12T05:21:39;102131.50;;;-2.67;94.77
64835;BME280;51293;59.296;18.006;2023-02-12T05:24:04;102141.53;;;-2.59;94.73
64835;BME280;51293;59.296;18.006;2023-02-12T05:26:30;102126.81;;;-2.63;94.83
64835;BME280;51293;59.296;18.006;2023-02-12T05:28:55;102125.31;;;-2.55;94.71
64835;BME280;51293;59.296;18.006;2023-02-12T05:31:21;102113.84;;;-2.55;94.77
64835;BME280;51293;59.296;18.006;2023-02-12T05:33:47;102114.69;;;-2.55;95.10
64835;BME280;51293;59.296;18.006;2023-02-12T05:36:15;102104.25;;;-2.45;94.92
64835;BME280;51293;59.296;18.006;2023-02-12T05:38:41;102101.06;;;-2.50;95.35
64835;BME280;51293;59.296;18.006;2023-02-12T05:41:10;102091.84;;;-2.44;95.22
64835;BME280;51293;59.296;18.006;2023-02-12T05:43:36;102087.25;;;-2.42;94.73
64835;BME280;51293;59.296;18.006;2023-02-12T05:46:03;102092.69;;;-2.44;95.51
64835;BME280;51293;59.296;18.006;2023-02-12T05:48:29;102087.38;;;-2.44;95.55
64835;BME280;51293;59.296;18.006;2023-02-12T05:51:24;102081.91;;;-2.53;95.83
64835;BME280;51293;59.296;18.006;2023-02-12T05:53:54;102083.25;;;-2.48;96.03
64835;BME280;51293;59.296;18.006;2023-02-12T05:56:25;102070.56;;;-2.56;96.16
64835;BME280;51293;59.296;18.006;2023-02-12T05:58:53;102080.09;;;-2.53;96.57
64835;BME280;51293;59.296;18.006;2023-02-12T06:01:28;102064.50;;;-2.58;96.75
64835;BME280;51293;59.296;18.006;2023-02-12T06:03:54;102070.66;;;-2.57;97.06
64835;BME280;51293;59.296;18.006;2023-02-12T06:06:20;102068.34;;;-2.62;97.42
64835;BME280;51293;59.296;18.006;2023-02-12T06:08:49;102073.81;;;-2.52;97.25
64835;BME280;51293;59.296;18.006;2023-02-12T06:11:15;102085.63;;;-2.56;97.48
64835;BME280;51293;59.296;18.006;2023-02-12T06:13:41;102081.06;;;-2.54;97.49
64835;BME280;51293;59.296;18.006;2023-02-12T06:16:22;102091.31;;;-2.49;97.77
64835;BME280;51293;59.296;18.006;2023-02-12T06:18:48;102092.69;;;-2.44;97.42
64835;BME280;51293;59.296;18.006;2023-02-12T06:21:15;102082.19;;;-2.45;98.05
64835;BME280;51293;59.296;18.006;2023-02-12T06:23:40;102071.72;;;-2.36;97.82
64835;BME280;51293;59.296;18.006;2023-02-12T06:26:06;102080.22;;;-2.31;97.80
64835;BME280;51293;59.296;18.006;2023-02-12T06:28:31;102070.91;;;-2.25;97.42
64835;BME280;51293;59.296;18.006;2023-02-12T06:30:57;102061.91;;;-2.22;97.79
64835;BME280;51293;59.296;18.006;2023-02-12T06:33:22;102070.00;;;-2.13;97.59
64835;BME280;51293;59.296;18.006;2023-02-12T06:35:48;102072.53;;;-2.11;97.43
64835;BME280;51293;59.296;18.006;2023-02-12T06:38:13;102064.47;;;-2.10;97.75
64835;BME280;51293;59.296;18.006;2023-02-12T06:40:38;102062.66;;;-2.09;97.71
64835;BME280;51293;59.296;18.006;2023-02-12T06:43:04;102065.00;;;-1.93;97.62
64835;BME280;51293;59.296;18.006;2023-02-12T06:45:29;102067.91;;;-1.96;97.57
64835;BME280;51293;59.296;18.006;2023-02-12T06:47:55;102062.00;;;-1.89;97.68
64835;BME280;51293;59.296;18.006;2023-02-12T06:50:20;102059.81;;;-1.84;97.29
64835;BME280;51293;59.296;18.006;2023-02-12T06:52:45;102056.44;;;-1.75;96.82
64835;BME280;51293;59.296;18.006;2023-02-12T06:55:11;102055.13;;;-1.80;97.19
64835;BME280;51293;59.296;18.006;2023-02-12T06:57:36;102058.78;;;-1.70;96.76
64835;BME280;51293;59.296;18.006;2023-02-12T07:00:02;102061.56;;;-1.72;96.82
64835;BME280;51293;59.296;18.006;2023-02-12T07:02:28;102062.59;;;-1.74;96.89
64835;BME280;51293;59.296;18.006;2023-02-12T07:04:53;102060.19;;;-1.77;96.82
64835;BME280;51293;59.296;18.006;2023-02-12T07:07:19;102055.97;;;-1.68;96.95
64835;BME280;51293;59.296;18.006;2023-02-12T07:09:44;102056.81;;;-1.79;97.29
64835;BME280;51293;59.296;18.006;2023-02-12T07:12:09;102053.06;;;-1.77;97.29
64835;BME280;51293;59.296;18.006;2023-02-12T07:14:35;102043.06;;;-1.73;97.55
64835;BME280;51293;59.296;18.006;2023-02-12T07:17:00;102046.78;;;-1.76;97.91
64835;BME280;51293;59.296;18.006;2023-02-12T07:19:28;102040.50;;;-1.75;98.01
64835;BME280;51293;59.296;18.006;2023-02-12T07:21:54;102036.53;;;-1.69;98.07
64835;BME280;51293;59.296;18.006;2023-02-12T07:24:19;102038.94;;;-1.66;97.88
64835;BME280;51293;59.296;18.006;2023-02-12T07:26:45;102046.47;;;-1.60;97.85
64835;BME280;51293;59.296;18.006;2023-02-12T07:29:10;102043.06;;;-1.62;97.94
64835;BME280;51293;59.296;18.006;2023-02-12T07:31:37;102042.69;;;-1.57;97.69
64835;BME280;51293;59.296;18.006;2023-02-12T07:34:02;102037.38;;;-1.57;98.01
64835;BME280;51293;59.296;18.006;2023-02-12T07:36:30;102050.31;;;-1.53;97.70
64835;BME280;51293;59.296;18.006;2023-02-12T07:38:56;102033.78;;;-1.56;97.81
64835;BME280;51293;59.296;18.006;2023-02-12T07:41:25;102038.97;;;-1.55;98.25
64835;BME280;51293;59.296;18.006;2023-02-12T07:43:56;102049.75;;;-1.56;98.43
64835;BME280;51293;59.296;18.006;2023-02-12T07:46:24;102043.56;;;-1.57;98.39
64835;BME280;51293;59.296;18.006;2023-02-12T07:48:54;102039.31;;;-1.59;98.77
64835;BME280;51293;59.296;18.006;2023-02-12T07:51:20;102039.31;;;-1.59;98.91
64835;BME280;51293;59.296;18.006;2023-02-12T07:53:46;102032.69;;;-1.54;99.16
64835;BME280;51293;59.296;18.006;2023-02-12T07:56:20;102039.56;;;-1.51;98.96
64835;BME280;51293;59.296;18.006;2023-02-12T07:58:47;102033.66;;;-1.44;98.58
64835;BME280;51293;59.296;18.006;2023-02-12T08:01:21;102039.94;;;-1.45;98.51
64835;BME280;51293;59.296;18.006;2023-02-12T08:03:49;102043.19;;;-1.41;98.83
64835;BME280;51293;59.296;18.006;2023-02-12T08:06:20;102048.41;;;-1.39;98.55
64835;BME280;51293;59.296;18.006;2023-02-12T08:08:47;102040.31;;;-1.38;98.79
64835;BME280;51293;59.296;18.006;2023-02-12T08:11:15;102027.13;;;-1.28;98.46
64835;BME280;51293;59.296;18.006;2023-02-12T08:13:42;102017.72;;;-1.21;98.23
64835;BME280;51293;59.296;18.006;2023-02-12T08:16:13;102003.69;;;-1.23;98.58
64835;BME280;51293;59.296;18.006;2023-02-12T08:18:39;101995.50;;;-1.31;98.96
64835;BME280;51293;59.296;18.006;2023-02-12T08:23:32;101983.75;;;-1.29;99.51
64835;BME280;51293;59.296;18.006;2023-02-12T08:26:10;101988.59;;;-1.23;99.67
64835;BME280;51293;59.296;18.006;2023-02-12T08:28:37;101970.34;;;-1.27;99.85
64835;BME280;51293;59.296;18.006;2023-02-12T08:31:05;101975.53;;;-1.26;100.00
64835;BME280;51293;59.296;18.006;2023-02-12T08:33:31;101980.63;;;-1.23;100.00
64835;BME280;51293;59.296;18.006;2023-02-12T08:36:08;101976.59;;;-1.06;100.00
64835;BME280;51293;59.296;18.006;2023-02-12T08:38:37;101971.63;;;-0.99;100.00
64835;BME280;51293;59.296;18.006;2023-02-12T08:41:05;101974.78;;;-1.05;100.00
64835;BME280;51293;59.296;18.006;2023-02-12T08:43:30;101970.75;;;-1.00;100.00
64835;BME280;51293;59.296;18.006;2023-02-12T08:46:04;101967.88;;;-0.97;100.00
64835;BME280;51293;59.296;18.006;2023-02-12T08:48:30;101964.81;;;-0.92;100.00
64835;BME280;51293;59.296;18.006;2023-02-12T08:51:02;101959.38;;;-0.91;100.00
64835;BME280;51293;59.296;18.006;2023-02-12T08:53:28;101964.81;;;-0.92;100.00
64835;BME280;51293;59.296;18.006;2023-02-12T08:55:53;101966.25;;;-0.88;100.00
64835;BME280;51293;59.296;18.006;2023-02-12T08:58:18;101961.59;;;-0.75;100.00
64835;BME280;51293;59.296;18.006;2023-02-12T09:00:44;101966.06;;;-0.75;100.00
64835;BME280;51293;59.296;18.006;2023-02-12T09:03:09;101976.84;;;-0.66;100.00
64835;BME280;51293;59.296;18.006;2023-02-12T09:05:38;101969.56;;;-0.64;100.00
64835;BME280;51293;59.296;18.006;2023-02-12T09:08:03;101980.53;;;-0.57;100.00
64835;BME280;51293;59.296;18.006;2023-02-12T09:10:28;101988.63;;;-0.59;100.00
64835;BME280;51293;59.296;18.006;2023-02-12T09:12:54;101995.91;;;-0.61;100.00
64835;BME280;51293;59.296;18.006;2023-02-12T09:15:19;101992.03;;;-0.57;100.00
64835;BME280;51293;59.296;18.006;2023-02-12T09:17:44;101994.06;;;-0.49;100.00
64835;BME280;51293;59.296;18.006;2023-02-12T09:20:10;101991.31;;;-0.38;99.95
64835;BME280;51293;59.296;18.006;2023-02-12T09:22:36;101994.00;;;-0.38;99.76
64835;BME280;51293;59.296;18.006;2023-02-12T09:25:04;101987.41;;;-0.34;99.84
64835;BME280;51293;59.296;18.006;2023-02-12T09:27:29;101998.81;;;-0.32;99.16
64835;BME280;51293;59.296;18.006;2023-02-12T09:29:54;101992.38;;;-0.29;98.98
64835;BME280;51293;59.296;18.006;2023-02-12T09:32:20;101987.38;;;-0.22;98.81
64835;BME280;51293;59.296;18.006;2023-02-12T09:34:45;101996.34;;;-0.23;98.84
64835;BME280;51293;59.296;18.006;2023-02-12T09:37:10;101982.13;;;-0.13;98.64
64835;BME280;51293;59.296;18.006;2023-02-12T09:39:36;101982.69;;;-0.09;98.19
64835;BME280;51293;59.296;18.006;2023-02-12T09:47:27;101969.69;;;-0.03;98.59
64835;BME280;51293;59.296;18.006;2023-02-12T09:52:29;101939.31;;;0.00;98.86
64835;BME280;51293;59.296;18.006;2023-02-12T09:54:55;101936.19;;;-0.05;98.85
64835;BME280;51293;59.296;18.006;2023-02-12T09:57:35;101919.53;;;0.03;99.01
64835;BME280;51293;59.296;18.006;2023-02-12T10:02:31;101931.91;;;0.13;98.96
64835;BME280;51293;59.296;18.006;2023-02-12T10:04:59;101915.00;;;0.24;98.96
64835;BME280;51293;59.296;18.006;2023-02-12T10:07:45;101908.97;;;0.32;98.27
64835;BME280;51293;59.296;18.006;2023-02-12T10:13:04;101907.06;;;0.43;97.90
64835;BME280;51293;59.296;18.006;2023-02-12T10:15:43;101918.88;;;0.50;97.85
64835;BME280;51293;59.296;18.006;2023-02-12T10:23:32;101920.91;;;0.77;96.70
64835;BME280;51293;59.296;18.006;2023-02-12T10:26:25;101908.56;;;0.76;96.91
64835;BME280;51293;59.296;18.006;2023-02-12T10:28:48;101914.31;;;0.81;96.84
64835;BME280;51293;59.296;18.006;2023-02-12T10:31:36;101907.44;;;0.79;96.85
64835;BME280;51293;59.296;18.006;2023-02-12T10:34:26;101899.16;;;0.92;96.59
64835;BME280;51293;59.296;18.006;2023-02-12T10:36:58;101908.44;;;0.97;96.45
64835;BME280;51293;59.296;18.006;2023-02-12T10:39:32;101902.53;;;1.03;96.49
64835;BME280;51293;59.296;18.006;2023-02-12T10:42:11;101905.75;;;0.97;96.85
64835;BME280;51293;59.296;18.006;2023-02-12T10:44:40;101899.47;;;1.18;96.19
64835;BME280;51293;59.296;18.006;2023-02-12T10:47:05;101895.94;;;1.17;96.40
64835;BME280;51293;59.296;18.006;2023-02-12T10:49:33;101891.59;;;1.26;96.03
64835;BME280;51293;59.296;18.006;2023-02-12T10:54:42;101883.59;;;1.26;96.25
64835;BME280;51293;59.296;18.006;2023-02-12T10:57:19;101885.25;;;1.36;95.99
64835;BME280;51293;59.296;18.006;2023-02-12T10:59:46;101874.41;;;1.38;95.74
64835;BME280;51293;59.296;18.006;2023-02-12T11:02:33;101877.50;;;1.43;95.50
64835;BME280;51293;59.296;18.006;2023-02-12T11:05:00;101885.78;;;1.40;96.02
64835;BME280;51293;59.296;18.006;2023-02-12T11:07:48;101884.13;;;1.39;96.15
64835;BME280;51293;59.296;18.006;2023-02-12T11:10:26;101878.78;;;1.39;96.51
64835;BME280;51293;59.296;18.006;2023-02-12T11:12:53;101883.53;;;1.45;96.27
64835;BME280;51293;59.296;18.006;2023-02-12T11:15:21;101890.69;;;1.54;96.10
64835;BME280;51293;59.296;18.006;2023-02-12T11:18:02;101884.09;;;1.58;95.90
64835;BME280;51293;59.296;18.006;2023-02-12T11:20:41;101879.56;;;1.68;95.38
64835;BME280;51293;59.296;18.006;2023-02-12T11:23:42;101871.56;;;1.68;95.55
64835;BME280;51293;59.296;18.006;2023-02-12T11:31:28;101877.00;;;1.77;95.41
64835;BME280;51293;59.296;18.006;2023-02-12T11:34:07;101867.72;;;1.81;95.51
64835;BME280;51293;59.296;18.006;2023-02-12T11:36:36;101871.78;;;1.85;95.33
64835;BME280;51293;59.296;18.006;2023-02-12T11:39:03;101869.38;;;1.91;94.67
64835;BME280;51293;59.296;18.006;2023-02-12T11:41:37;101870.38;;;1.90;95.04
64835;BME280;51293;59.296;18.006;2023-02-12T11:44:21;101860.06;;;1.95;94.69
64835;BME280;51293;59.296;18.006;2023-02-12T11:46:51;101871.31;;;1.99;94.64
64835;BME280;51293;59.296;18.006;2023-02-12T11:49:21;101852.84;;;2.06;94.64
64835;BME280;51293;59.296;18.006;2023-02-12T11:51:47;101850.72;;;2.09;94.67
64835;BME280;51293;59.296;18.006;2023-02-12T11:54:20;101855.94;;;2.11;94.02
64835;BME280;51293;59.296;18.006;2023-02-12T11:56:47;101857.44;;;2.13;94.00
64835;BME280;51293;59.296;18.006;2023-02-12T11:59:34;101857.19;;;2.16;93.86
64835;BME280;51293;59.296;18.006;2023-02-12T12:02:23;101844.25;;;2.12;94.00
64835;BME280;51293;59.296;18.006;2023-02-12T12:04:55;101836.31;;;2.20;94.09
64835;BME280;51293;59.296;18.006;2023-02-12T12:07:31;101844.94;;;2.14;94.18
64835;BME280;51293;59.296;18.006;2023-02-12T12:10:12;101837.31;;;2.19;94.00
64835;BME280;51293;59.296;18.006;2023-02-12T12:12:55;101841.38;;;2.23;93.91
64835;BME280;51293;59.296;18.006;2023-02-12T12:15:29;101849.28;;;2.15;94.04
64835;BME280;51293;59.296;18.006;2023-02-12T12:18:41;101839.16;;;2.18;94.10
64835;BME280;51293;59.296;18.006;2023-02-12T12:21:49;101836.63;;;2.17;94.53
64835;BME280;51293;59.296;18.006;2023-02-12T12:30:21;101837.56;;;2.25;94.28
64835;BME280;51293;59.296;18.006;2023-02-12T12:32:51;101829.34;;;2.37;93.99
64835;BME280;51293;59.296;18.006;2023-02-12T12:35:28;101837.03;;;2.40;93.83
64835;BME280;51293;59.296;18.006;2023-02-12T12:38:32;101841.94;;;2.44;93.60
64835;BME280;51293;59.296;18.006;2023-02-12T12:41:02;101845.78;;;2.42;93.58
64835;BME280;51293;59.296;18.006;2023-02-12T12:43:47;101835.25;;;2.40;93.38
64835;BME280;51293;59.296;18.006;2023-02-12T12:48:58;101831.88;;;2.56;93.31
64835;BME280;51293;59.296;18.006;2023-02-12T12:52:13;101840.19;;;2.53;93.09
64835;BME280;51293;59.296;18.006;2023-02-12T12:57:50;101830.19;;;2.55;93.32
64835;BME280;51293;59.296;18.006;2023-02-12T13:03:24;101818.81;;;2.53;93.63
64835;BME280;51293;59.296;18.006;2023-02-12T13:06:32;101815.28;;;2.52;93.75
64835;BME280;51293;59.296;18.006;2023-02-12T13:09:10;101821.78;;;2.50;94.09
64835;BME280;51293;59.296;18.006;2023-02-12T13:17:39;101831.66;;;2.49;94.59
64835;BME280;51293;59.296;18.006;2023-02-12T13:20:26;101839.22;;;2.54;94.42
64835;BME280;51293;59.296;18.006;2023-02-12T13:22:59;101839.69;;;2.49;94.59
64835;BME280;51293;59.296;18.006;2023-02-12T13:25:39;101837.69;;;2.51;94.63
64835;BME280;51293;59.296;18.006;2023-02-12T13:28:21;101837.69;;;2.51;94.56
64835;BME280;51293;59.296;18.006;2023-02-12T13:30:49;101836.53;;;2.54;94.62
64835;BME280;51293;59.296;18.006;2023-02-12T13:33:25;101829.25;;;2.46;95.07
64835;BME280;51293;59.296;18.006;2023-02-12T13:35:56;101830.25;;;2.45;95.20
64835;BME280;51293;59.296;18.006;2023-02-12T13:38:30;101826.00;;;2.52;94.66
64835;BME280;51293;59.296;18.006;2023-02-12T13:41:04;101839.88;;;2.38;95.54
64835;BME280;51293;59.296;18.006;2023-02-12T13:55:30;101838.84;;;2.21;97.35
64835;BME280;51293;59.296;18.006;2023-02-12T14:01:06;101861.44;;;2.09;97.98
64835;BME280;51293;59.296;18.006;2023-02-12T14:03:33;101856.63;;;2.13;97.90
64835;BME280;51293;59.296;18.006;2023-02-12T14:06:15;101840.19;;;2.08;98.44
64835;BME280;51293;59.296;18.006;2023-02-12T14:08:44;101851.31;;;2.03;98.63
64835;BME280;51293;59.296;18.006;2023-02-12T14:11:13;101852.88;;;1.96;98.93
64835;BME280;51293;59.296;18.006;2023-02-12T14:21:57;101846.06;;;1.84;100.00
64835;BME280;51293;59.296;18.006;2023-02-12T14:27:02;101837.22;;;1.74;100.00
64835;BME280;51293;59.296;18.006;2023-02-12T14:29:28;101847.09;;;1.63;100.00
64835;BME280;51293;59.296;18.006;2023-02-12T14:31:53;101840.22;;;1.61;100.00
64835;BME280;51293;59.296;18.006;2023-02-12T14:36:47;101836.25;;;1.65;100.00
64835;BME280;51293;59.296;18.006;2023-02-12T14:41:49;101827.28;;;1.56;100.00
64835;BME280;51293;59.296;18.006;2023-02-12T14:49:24;101838.84;;;1.47;100.00
64835;BME280;51293;59.296;18.006;2023-02-12T14:54:44;101843.22;;;1.38;100.00
64835;BME280;51293;59.296;18.006;2023-02-12T14:57:34;101839.31;;;1.33;100.00
64835;BME280;51293;59.296;18.006;2023-02-12T15:06:14;101834.41;;;1.28;100.00